Shawnee Mission, KS (66222)

2:18 PM CST on December 22, 2014 (GMT -0600)
Ham radio station N0GMG Westwood Ks | Change Station
CLOSE
Current Station
Personal Weather Station
Location: Westwood, KS
Elevation: 937 ft
Nearby Weather Stations

Elev 937 ft 39.03 °N, 94.61 °W | Updated 5 seconds ago

Overcast
Overcast
45.0 °F
Feels Like 45 °F
N
1.8
Wind Variable Wind from SSW
Gusts 4.3 mph

Today
High -- | Low -- °F
--% Chance of Precip.
Yesterday
High -- | Low -- °F
Precip. -- in
7:34 AM 5:00 PM
New Moon, 1% visible
Pressure 29.45 in
Visibility 6.0 miles
Clouds Overcast 700 ft
Windchill 45 °F
Dew Point Not available.
Humidity Not available.
Rainfall 0.09 in
Snow Depth Not available.
UV 1 out of 12
Pollen .10 out of 12
Air Quality Not available.
Flu Activity Not available.
METAR KMKC 221954Z 19005KT 6SM BR OVC007 08/07 A2945 RMK AO2 RAE46 SLP973 P0000 T00780067

More Conditions Fewer Conditions

Pressure 29.45 in
Visibility 6.0 miles
Clouds Overcast 700 ft
Windchill 45 °F
Dew Point Not available.
Humidity Not available.
Rainfall 0.09 in
Snow Depth Not available.
UV 1 out of 12
Pollen .10 out of 12
Air Quality Not available.
Flu Activity Not available.
METAR KMKC 221954Z 19005KT 6SM BR OVC007 08/07 A2945 RMK AO2 RAE46 SLP973 P0000 T00780067

More Conditions Fewer Conditions

10-Day Weather Forecast

Almanac

Astronomy

Dec. 22, 2014 Rise Set
Actual Time
Civil Twilight
Nautical Twilight
Astronomical Twilight
Moon
Length of Visible Light
Length of Day
Tomorrow will be .
, % of the Moon is Illuminated

Today's Extremes

State Highs State Lows

Community

WunderPhotos

Upload Photos

1,779,708 photos uploaded!

WunderBlogs® & News

Nearby

Air Quality

  Air Quality AQ Index Pollutant
Not available.

Snow Depth

Station Depth Elevation

Earthquake Activity

City Distance Mag. Time & Date
Minimum magnitude displayed is 2.5.

Coastal Water Temperatures

Place Temperature

Nearby Weather Stations